createdAt,value
2023-10-12T00:01:59.476Z,2.72
2023-10-12T00:04:51.366Z,3.22
2023-10-12T00:07:26.420Z,2.80
2023-10-12T00:10:12.226Z,2.95
2023-10-12T00:12:45.760Z,2.20
2023-10-12T00:15:30.183Z,2.53
2023-10-12T00:18:05.861Z,3.10
2023-10-12T00:20:33.054Z,3.30
2023-10-12T00:23:17.108Z,3.38
2023-10-12T00:25:50.446Z,2.78
2023-10-12T00:28:20.634Z,3.00
2023-10-12T00:30:50.795Z,3.22
2023-10-12T00:33:21.118Z,3.10
2023-10-12T00:35:50.193Z,2.80
2023-10-12T00:38:19.181Z,3.08
2023-10-12T00:40:57.186Z,2.75
2023-10-12T00:43:53.912Z,3.10
2023-10-12T00:46:26.979Z,3.33
2023-10-12T00:49:13.201Z,3.03
2023-10-12T00:51:50.529Z,4.30
2023-10-12T00:54:37.963Z,2.95
2023-10-12T00:57:06.790Z,2.90
2023-10-12T00:59:35.336Z,3.75
2023-10-12T01:02:16.672Z,3.17
2023-10-12T01:04:45.769Z,3.03
2023-10-12T01:07:20.752Z,2.83
2023-10-12T01:09:49.537Z,3.25
2023-10-12T01:12:18.673Z,3.00
2023-10-12T01:14:48.539Z,3.00
2023-10-12T01:17:25.371Z,3.08
2023-10-12T01:19:53.317Z,3.88
2023-10-12T01:22:32.944Z,4.07
2023-10-12T01:25:12.158Z,4.65
2023-10-12T01:27:44.945Z,4.50
2023-10-12T01:30:23.361Z,3.97
2023-10-12T01:33:01.092Z,4.63
2023-10-12T01:35:33.510Z,4.15
2023-10-12T01:38:01.777Z,4.20
2023-10-12T01:40:42.209Z,3.50
2023-10-12T01:43:13.415Z,3.78
2023-10-12T01:45:44.737Z,5.40
2023-10-12T01:48:23.731Z,2.90
2023-10-12T01:50:50.975Z,3.15
2023-10-12T01:53:20.944Z,3.15
2023-10-12T01:55:49.137Z,3.03
2023-10-12T01:58:16.341Z,2.47
2023-10-12T02:00:43.982Z,2.15
2023-10-12T02:03:19.379Z,2.53
2023-10-12T02:06:02.337Z,3.38
2023-10-12T02:08:34.642Z,3.55
2023-10-12T02:11:07.754Z,3.45
2023-10-12T02:13:35.860Z,3.20
2023-10-12T02:16:13.460Z,4.47
2023-10-12T02:18:41.398Z,4.43
2023-10-12T02:21:08.481Z,3.72
2023-10-12T02:23:39.780Z,4.25
2023-10-12T02:26:26.893Z,3.97
2023-10-12T02:28:54.784Z,3.97
2023-10-12T02:31:21.914Z,4.53
2023-10-12T02:33:49.185Z,3.63
2023-10-12T02:36:19.176Z,4.65
2023-10-12T02:38:46.278Z,4.55
2023-10-12T02:41:14.029Z,4.50
2023-10-12T02:43:55.757Z,5.07
2023-10-12T02:46:23.926Z,4.35
2023-10-12T02:48:54.685Z,4.97
2023-10-12T02:51:24.026Z,4.20
2023-10-12T02:53:51.420Z,3.92
2023-10-12T02:56:25.970Z,3.47
2023-10-12T02:58:53.071Z,3.22
2023-10-12T03:01:22.844Z,3.38
2023-10-12T03:03:50.393Z,3.58
2023-10-12T03:06:31.374Z,2.78
2023-10-12T03:09:01.832Z,3.10
2023-10-12T03:11:30.604Z,4.28
2023-10-12T03:14:26.772Z,3.20
2023-10-12T03:16:53.963Z,3.00
2023-10-12T03:19:22.480Z,2.97
2023-10-12T03:21:52.747Z,3.38
2023-10-12T03:24:30.887Z,2.88
2023-10-12T03:27:04.078Z,3.08
2023-10-12T03:29:33.624Z,2.75
2023-10-12T03:32:01.989Z,3.25
2023-10-12T03:34:36.949Z,2.78
2023-10-12T03:37:05.518Z,2.70
2023-10-12T03:39:44.293Z,2.53
2023-10-12T03:42:14.105Z,3.58
2023-10-12T03:44:46.870Z,3.13
2023-10-12T03:47:17.457Z,3.35
2023-10-12T03:49:53.622Z,3.53
2023-10-12T03:52:40.446Z,4.40
2023-10-12T03:55:08.534Z,3.47
2023-10-12T03:57:35.714Z,3.00
2023-10-12T04:00:10.558Z,3.50
2023-10-12T04:02:51.244Z,3.78
2023-10-12T04:05:22.633Z,3.13
2023-10-12T04:07:52.575Z,3.83
2023-10-12T04:10:41.967Z,3.30
2023-10-12T04:13:09.593Z,3.28
2023-10-12T04:15:55.701Z,3.65
2023-10-12T04:18:33.601Z,2.97
2023-10-12T04:21:03.248Z,3.53
2023-10-12T04:23:50.420Z,3.70
2023-10-12T04:26:17.468Z,3.95
2023-10-12T04:28:53.731Z,3.88
2023-10-12T04:31:33.257Z,3.40
2023-10-12T04:34:04.583Z,3.15
2023-10-12T04:36:46.010Z,4.13
2023-10-12T04:39:25.829Z,3.63
2023-10-12T04:41:53.259Z,3.63
2023-10-12T04:44:37.123Z,4.28
2023-10-12T04:47:08.118Z,4.03
2023-10-12T04:49:37.510Z,4.60
2023-10-12T04:52:07.451Z,3.47
2023-10-12T04:54:38.052Z,3.50
2023-10-12T04:57:05.139Z,3.88
2023-10-12T04:59:44.828Z,3.25
2023-10-12T05:02:14.956Z,3.58
2023-10-12T05:04:42.452Z,4.18
2023-10-12T05:07:16.015Z,4.38
2023-10-12T05:09:53.165Z,3.58
2023-10-12T05:12:21.864Z,4.10
2023-10-12T05:14:49.123Z,4.78
2023-10-12T05:17:16.208Z,4.20
2023-10-12T05:19:43.602Z,4.43
2023-10-12T05:22:13.848Z,4.13
2023-10-12T05:24:41.081Z,3.85
2023-10-12T05:27:20.849Z,3.97
2023-10-12T05:29:53.241Z,3.90
2023-10-12T05:32:25.379Z,3.78
2023-10-12T05:34:53.561Z,4.63
2023-10-12T05:37:28.154Z,4.10
2023-10-12T05:39:56.710Z,4.50
2023-10-12T05:42:24.199Z,4.30
2023-10-12T05:44:53.096Z,5.50
2023-10-12T05:47:30.489Z,4.65
2023-10-12T05:49:58.457Z,5.55
2023-10-12T05:52:26.166Z,4.88
2023-10-12T05:54:59.418Z,5.15
2023-10-12T05:57:31.081Z,4.72
2023-10-12T06:00:01.608Z,5.20
2023-10-12T06:02:29.920Z,4.45
2023-10-12T06:04:58.227Z,3.47
2023-10-12T06:07:25.554Z,4.13
2023-10-12T06:09:54.738Z,4.82
2023-10-12T06:12:25.672Z,4.05
2023-10-12T06:14:55.700Z,4.82
2023-10-12T06:17:31.632Z,5.05
2023-10-12T06:20:21.669Z,4.88
2023-10-12T06:22:51.024Z,4.28
2023-10-12T06:25:19.872Z,5.10
2023-10-12T06:27:46.972Z,4.80
2023-10-12T06:30:24.455Z,5.72
2023-10-12T06:32:51.640Z,4.30
2023-10-12T06:35:21.349Z,5.97
2023-10-12T06:38:01.195Z,4.53
2023-10-12T06:40:31.006Z,3.70
2023-10-12T06:43:14.167Z,4.28
2023-10-12T06:45:49.616Z,5.00
2023-10-12T06:48:30.355Z,4.35
2023-10-12T06:51:12.273Z,5.32
2023-10-12T06:53:45.453Z,4.88
2023-10-12T06:56:16.573Z,5.03
2023-10-12T06:59:09.978Z,5.72
2023-10-12T07:01:52.973Z,5.18
2023-10-12T07:04:40.323Z,4.88
2023-10-12T07:07:12.650Z,5.45
2023-10-12T07:09:45.705Z,4.95
2023-10-12T07:12:22.948Z,5.28
2023-10-12T07:14:56.577Z,4.60
2023-10-12T07:17:33.376Z,4.20
2023-10-12T07:20:01.241Z,4.45
2023-10-12T07:22:28.466Z,4.47
2023-10-12T07:24:57.974Z,4.95
2023-10-12T07:27:25.657Z,4.45
2023-10-12T07:30:15.793Z,4.32
2023-10-12T07:32:57.998Z,5.47
2023-10-12T07:35:35.969Z,4.90
2023-10-12T07:38:14.341Z,4.72
2023-10-12T07:40:57.462Z,4.72
2023-10-12T07:43:26.261Z,4.15
2023-10-12T07:45:53.943Z,4.30
2023-10-12T07:48:41.890Z,4.28
2023-10-12T07:51:28.607Z,5.53
2023-10-12T07:53:58.645Z,4.85
2023-10-12T07:56:31.867Z,4.63
2023-10-12T07:58:59.071Z,4.85
2023-10-12T08:01:27.157Z,5.32
2023-10-12T08:03:59.586Z,4.22
2023-10-12T08:06:36.553Z,3.95
2023-10-12T08:09:22.307Z,4.25
2023-10-12T08:11:49.365Z,4.57
2023-10-12T08:14:25.217Z,4.65
2023-10-12T08:17:12.658Z,4.38
2023-10-12T08:19:45.780Z,3.97
2023-10-12T08:22:30.897Z,3.80
2023-10-12T08:24:59.908Z,4.95
2023-10-12T08:27:27.568Z,3.75
2023-10-12T08:29:54.665Z,3.42
2023-10-12T08:32:27.912Z,3.80
2023-10-12T08:35:02.692Z,3.42
2023-10-12T08:37:37.396Z,4.35
2023-10-12T08:40:21.008Z,4.13
2023-10-12T08:43:07.703Z,3.78
2023-10-12T08:45:36.838Z,4.47
2023-10-12T08:48:05.135Z,4.07
2023-10-12T08:50:48.948Z,4.38
2023-10-12T08:53:21.664Z,3.72
2023-10-12T08:55:53.056Z,4.05
2023-10-12T08:58:34.492Z,3.47
2023-10-12T09:01:01.591Z,4.47
2023-10-12T09:03:39.946Z,3.60
2023-10-12T09:06:27.663Z,3.53
2023-10-12T09:08:57.168Z,4.72
2023-10-12T09:11:34.546Z,3.95
2023-10-12T09:14:12.772Z,3.35
2023-10-12T09:16:40.024Z,3.63
2023-10-12T09:19:24.554Z,4.13
2023-10-12T09:22:00.824Z,3.88
2023-10-12T09:24:33.876Z,3.85
2023-10-12T09:27:12.433Z,3.80
2023-10-12T09:29:59.099Z,3.55
2023-10-12T09:32:27.537Z,3.20
2023-10-12T09:35:14.240Z,3.83
2023-10-12T09:37:52.557Z,3.40
2023-10-12T09:40:36.542Z,3.42
2023-10-12T09:43:13.658Z,3.25
2023-10-12T09:45:48.621Z,3.65
2023-10-12T09:48:28.391Z,3.22
2023-10-12T09:50:57.454Z,3.90
2023-10-12T09:53:36.888Z,3.40
2023-10-12T09:56:13.101Z,3.95
2023-10-12T09:58:58.207Z,3.50
2023-10-12T10:01:40.784Z,3.42
2023-10-12T10:07:19.404Z,3.60
2023-10-12T10:09:54.907Z,3.65
2023-10-12T10:12:24.178Z,4.32
2023-10-12T10:15:00.915Z,4.90
2023-10-12T10:17:48.011Z,4.75
2023-10-12T10:20:24.393Z,4.30
2023-10-12T10:23:02.965Z,4.03
2023-10-12T10:25:38.001Z,4.13
2023-10-12T10:28:11.562Z,3.92
2023-10-12T10:30:42.354Z,3.85
2023-10-12T10:33:15.029Z,4.07
2023-10-12T10:36:04.294Z,4.40
2023-10-12T10:38:35.513Z,3.95
2023-10-12T10:41:07.178Z,4.18
2023-10-12T10:43:38.410Z,3.83
2023-10-12T10:46:12.334Z,3.67
2023-10-12T10:51:19.681Z,4.60
2023-10-12T10:53:56.132Z,4.13
2023-10-12T10:56:39.566Z,3.97
2023-10-12T10:59:13.565Z,3.45
2023-10-12T11:01:47.692Z,3.90
2023-10-12T11:04:22.617Z,3.42
2023-10-12T11:06:55.106Z,4.68
2023-10-12T11:09:32.827Z,3.80
2023-10-12T11:12:03.094Z,3.97
2023-10-12T11:14:33.353Z,3.42
2023-10-12T11:17:06.038Z,3.25
2023-10-12T11:19:34.278Z,4.10
2023-10-12T11:22:01.736Z,3.58
2023-10-12T11:24:29.136Z,3.97
2023-10-12T11:26:58.540Z,2.97
2023-10-12T11:29:26.471Z,3.95
2023-10-12T11:32:10.876Z,3.47
2023-10-12T11:34:46.619Z,4.00
2023-10-12T11:37:15.016Z,3.38
2023-10-12T11:39:43.762Z,4.10
2023-10-12T11:42:14.698Z,3.78
2023-10-12T11:44:43.869Z,4.45
2023-10-12T11:47:14.348Z,3.63
2023-10-12T11:49:58.498Z,3.33
2023-10-12T11:52:34.942Z,3.63
2023-10-12T11:55:29.057Z,3.50
2023-10-12T11:57:56.641Z,3.22
2023-10-12T12:00:30.588Z,3.88
2023-10-12T12:03:04.121Z,2.88
2023-10-12T12:05:32.029Z,3.80
2023-10-12T12:08:07.300Z,2.95
2023-10-12T12:10:55.429Z,3.13
2023-10-12T12:13:24.418Z,2.88
2023-10-12T12:15:56.916Z,4.82
2023-10-12T12:20:53.950Z,2.28
2023-10-12T12:23:29.269Z,3.15
2023-10-12T12:26:09.021Z,3.28
2023-10-12T12:28:44.381Z,2.78
2023-10-12T12:31:16.663Z,3.47
2023-10-12T12:33:46.026Z,3.35
2023-10-12T12:36:14.339Z,3.33
2023-10-12T12:38:41.522Z,2.95
2023-10-12T12:41:21.052Z,3.08
2023-10-12T12:43:48.911Z,3.05
2023-10-12T12:46:17.782Z,2.95
2023-10-12T12:48:49.752Z,3.72
2023-10-12T12:51:18.313Z,3.33
2023-10-12T12:53:48.387Z,2.67
2023-10-12T12:56:17.056Z,2.63
2023-10-12T12:58:49.206Z,3.25
2023-10-12T13:01:24.618Z,2.90
2023-10-12T13:03:59.027Z,3.47
2023-10-12T13:06:26.454Z,3.30
2023-10-12T13:08:53.796Z,3.40
2023-10-12T13:11:24.215Z,2.78
2023-10-12T13:13:51.706Z,3.78
2023-10-12T13:16:19.182Z,3.60
2023-10-12T13:18:49.688Z,3.08
2023-10-12T13:21:18.045Z,3.05
2023-10-12T13:23:46.923Z,3.08
2023-10-12T13:26:18.341Z,3.00
2023-10-12T13:28:45.595Z,3.00
2023-10-12T13:31:13.687Z,3.85
2023-10-12T13:33:44.345Z,3.50
2023-10-12T13:36:11.640Z,3.45
2023-10-12T13:38:39.163Z,2.92
2023-10-12T13:41:06.797Z,3.95
2023-10-12T13:43:35.970Z,3.50
2023-10-12T13:46:10.794Z,4.05
2023-10-12T13:48:38.921Z,3.50
2023-10-12T13:51:09.687Z,3.67
2023-10-12T13:53:38.043Z,3.85
2023-10-12T13:56:10.760Z,4.22
2023-10-12T13:58:43.277Z,3.28
2023-10-12T14:01:17.028Z,4.10
2023-10-12T14:03:58.883Z,4.68
2023-10-12T14:06:26.800Z,4.38
2023-10-12T14:08:55.763Z,4.05
2023-10-12T14:11:22.989Z,3.80
2023-10-12T14:13:51.961Z,3.88
2023-10-12T14:16:19.665Z,4.25
2023-10-12T14:18:50.892Z,4.20
2023-10-12T14:21:20.180Z,4.00
2023-10-12T14:23:49.159Z,4.03
2023-10-12T14:26:20.589Z,4.40
2023-10-12T14:28:51.191Z,3.90
2023-10-12T14:31:18.598Z,4.03
2023-10-12T14:33:45.837Z,4.43
2023-10-12T14:36:13.204Z,4.70
2023-10-12T14:38:45.795Z,4.68
2023-10-12T14:43:48.793Z,4.37
2023-10-12T14:46:19.624Z,4.45
2023-10-12T14:48:51.876Z,4.28
2023-10-12T14:51:22.307Z,4.13
2023-10-12T14:53:51.573Z,3.75
2023-10-12T14:56:28.628Z,4.07
2023-10-12T14:58:57.118Z,5.88
2023-10-12T15:01:29.116Z,4.43
2023-10-12T15:06:24.203Z,4.30
2023-10-12T15:08:54.150Z,4.03
2023-10-12T15:11:21.562Z,4.28
2023-10-12T15:13:50.392Z,4.15
2023-10-12T15:16:18.074Z,4.43
2023-10-12T15:18:45.464Z,5.18
2023-10-12T15:23:44.156Z,4.40
2023-10-12T15:26:14.557Z,4.55
2023-10-12T15:28:41.908Z,4.75
2023-10-12T15:31:10.030Z,5.03
2023-10-12T15:33:40.157Z,4.82
2023-10-12T15:36:08.683Z,4.22
2023-10-12T15:38:35.749Z,4.95
2023-10-12T15:41:03.219Z,3.65
2023-10-12T15:43:30.306Z,4.22
2023-10-12T15:45:57.583Z,4.05
2023-10-12T15:48:27.988Z,4.15
2023-10-12T15:50:55.653Z,4.15
2023-10-12T15:53:24.197Z,3.97
2023-10-12T15:55:51.413Z,4.25
2023-10-12T15:58:18.771Z,3.83
2023-10-12T16:00:46.660Z,3.30
2023-10-12T16:03:15.603Z,3.20
2023-10-12T16:05:44.154Z,3.33
2023-10-12T16:08:16.157Z,2.92
2023-10-12T16:10:50.062Z,3.10
2023-10-12T16:13:17.716Z,3.08
2023-10-12T16:15:45.588Z,3.28
2023-10-12T16:18:15.623Z,2.95
2023-10-12T16:20:42.753Z,2.67
2023-10-12T16:23:09.989Z,2.75
2023-10-12T16:25:37.127Z,3.00
2023-10-12T16:28:04.609Z,2.88
2023-10-12T16:30:36.259Z,3.03
2023-10-12T16:33:03.853Z,2.00
2023-10-12T16:35:31.521Z,3.13
2023-10-12T16:38:01.761Z,2.38
2023-10-12T16:40:31.523Z,2.17
2023-10-12T16:42:58.682Z,2.55
2023-10-12T16:45:27.241Z,2.65
2023-10-12T16:47:54.356Z,2.58
2023-10-12T16:50:21.758Z,3.00
2023-10-12T16:52:51.093Z,2.47
2023-10-12T16:55:19.478Z,2.28
2023-10-12T16:57:47.087Z,2.53
2023-10-12T17:00:18.363Z,2.88
2023-10-12T17:02:46.602Z,3.72
2023-10-12T17:05:15.148Z,3.03
2023-10-12T17:07:45.665Z,2.45
2023-10-12T17:10:26.431Z,2.50
2023-10-12T17:12:53.976Z,1.95
2023-10-12T17:15:22.330Z,2.75
2023-10-12T17:17:51.342Z,2.58
2023-10-12T17:20:18.698Z,4.38
2023-10-12T17:22:47.156Z,1.80
2023-10-12T17:25:15.070Z,2.30
2023-10-12T17:27:43.151Z,1.90
2023-10-12T17:30:12.079Z,2.78
2023-10-12T17:32:41.771Z,3.15
2023-10-12T17:35:15.822Z,2.60
2023-10-12T17:37:43.632Z,2.97
2023-10-12T17:40:13.176Z,3.08
2023-10-12T17:42:40.243Z,2.90
2023-10-12T17:45:10.994Z,3.13
2023-10-12T17:47:40.117Z,3.20
2023-10-12T17:50:15.448Z,3.08
2023-10-12T17:52:44.415Z,2.95
2023-10-12T17:55:11.981Z,3.33
2023-10-12T17:57:39.301Z,3.63
2023-10-12T18:00:11.099Z,2.97
2023-10-12T18:02:42.852Z,2.90
2023-10-12T18:05:13.206Z,2.80
2023-10-12T18:07:41.821Z,2.97
2023-10-12T18:10:10.464Z,3.35
2023-10-12T18:12:37.664Z,2.80
2023-10-12T18:15:05.406Z,3.53
2023-10-12T18:17:32.860Z,3.40
2023-10-12T18:19:59.973Z,3.45
2023-10-12T18:22:28.956Z,4.00
2023-10-12T18:24:56.707Z,3.80
2023-10-12T18:27:23.831Z,3.47
2023-10-12T18:29:50.956Z,3.60
2023-10-12T18:32:22.661Z,3.70
2023-10-12T18:34:52.904Z,2.75
2023-10-12T18:37:20.529Z,3.28
2023-10-12T18:39:47.695Z,2.95
2023-10-12T18:42:14.946Z,3.50
2023-10-12T18:44:42.093Z,3.78
2023-10-12T18:47:09.253Z,3.58
2023-10-12T18:49:37.213Z,3.80
2023-10-12T18:52:04.552Z,3.00
2023-10-12T18:54:31.649Z,3.13
2023-10-12T18:56:59.673Z,3.38
2023-10-12T18:59:26.742Z,4.18
2023-10-12T19:01:54.403Z,3.13
2023-10-12T19:04:21.723Z,4.18
2023-10-12T19:06:49.335Z,3.78
2023-10-12T19:09:16.646Z,3.97
2023-10-12T19:11:44.279Z,3.50
2023-10-12T19:14:11.326Z,3.92
2023-10-12T19:16:39.426Z,3.80
2023-10-12T19:19:08.528Z,3.95
2023-10-12T19:21:38.717Z,3.50
2023-10-12T19:24:11.714Z,4.20
2023-10-12T19:26:40.366Z,4.45
2023-10-12T19:29:07.505Z,3.85
2023-10-12T19:31:38.546Z,4.65
2023-10-12T19:34:05.720Z,3.70
2023-10-12T19:36:32.876Z,3.53
2023-10-12T19:39:00.137Z,3.30
2023-10-12T19:41:27.652Z,3.28
2023-10-12T19:43:57.728Z,3.97
2023-10-12T19:46:26.076Z,3.88
2023-10-12T19:48:53.317Z,3.20
2023-10-12T19:51:20.492Z,3.33
2023-10-12T19:53:49.277Z,3.80
2023-10-12T19:56:18.446Z,3.45
2023-10-12T19:58:59.227Z,3.67
2023-10-12T20:01:26.993Z,3.92
2023-10-12T20:03:56.611Z,4.35
2023-10-12T20:06:25.608Z,4.57
2023-10-12T20:08:54.517Z,4.28
2023-10-12T20:11:21.595Z,4.18
2023-10-12T20:13:51.489Z,3.75
2023-10-12T20:16:21.924Z,4.15
2023-10-12T20:18:49.576Z,4.05
2023-10-12T20:21:17.683Z,4.18
2023-10-12T20:23:46.273Z,3.92
2023-10-12T20:26:14.979Z,4.65
2023-10-12T20:28:42.135Z,4.47
2023-10-12T20:31:12.463Z,3.78
2023-10-12T20:33:43.868Z,4.25
2023-10-12T20:36:11.952Z,4.10
2023-10-12T20:38:40.104Z,4.60
2023-10-12T20:41:07.478Z,4.50
2023-10-12T20:43:38.945Z,4.20
2023-10-12T20:46:12.244Z,4.35
2023-10-12T20:48:40.814Z,4.55
2023-10-12T20:51:08.583Z,4.20
2023-10-12T20:53:36.617Z,4.97
2023-10-12T20:56:28.735Z,4.50
2023-10-12T20:59:11.827Z,3.70
2023-10-12T21:01:48.721Z,3.08
2023-10-12T21:04:21.854Z,3.78
2023-10-12T21:06:52.042Z,5.00
2023-10-12T21:09:22.438Z,4.15
2023-10-12T21:11:58.021Z,4.18
2023-10-12T21:14:28.377Z,4.25
2023-10-12T21:17:05.180Z,4.55
2023-10-12T21:19:42.220Z,3.22
2023-10-12T21:22:10.931Z,4.28
2023-10-12T21:24:39.282Z,4.22
2023-10-12T21:27:07.955Z,3.83
2023-10-12T21:29:35.765Z,3.75
2023-10-12T21:32:06.609Z,3.83
2023-10-12T21:34:34.046Z,3.97
2023-10-12T21:37:02.214Z,4.05
2023-10-12T21:39:56.453Z,3.50
2023-10-12T21:42:23.556Z,3.45
2023-10-12T21:44:50.599Z,3.30
2023-10-12T21:47:21.396Z,3.33
2023-10-12T21:49:48.552Z,3.50
2023-10-12T21:52:16.182Z,4.63
2023-10-12T21:54:43.333Z,3.85
2023-10-12T21:57:11.835Z,3.05
2023-10-12T21:59:39.373Z,3.67
2023-10-12T22:02:15.504Z,3.72
2023-10-12T22:04:47.139Z,3.83
2023-10-12T22:07:17.712Z,3.35
2023-10-12T22:09:46.235Z,3.10
2023-10-12T22:12:21.232Z,3.53
2023-10-12T22:14:48.456Z,4.15
2023-10-12T22:17:26.929Z,4.53
2023-10-12T22:19:57.027Z,3.10
2023-10-12T22:22:24.950Z,3.22
2023-10-12T22:24:55.520Z,3.38
2023-10-12T22:27:23.559Z,3.55
2023-10-12T22:29:51.644Z,3.75
2023-10-12T22:32:18.759Z,3.05
2023-10-12T22:34:46.497Z,3.95
2023-10-12T22:37:14.710Z,3.50
2023-10-12T22:39:43.043Z,3.70
2023-10-12T22:42:10.211Z,4.70
2023-10-12T22:44:37.277Z,3.70
2023-10-12T22:47:04.888Z,3.47
2023-10-12T22:49:33.723Z,3.38
2023-10-12T22:52:01.233Z,3.72
2023-10-12T22:54:34.400Z,3.67
2023-10-12T22:57:03.695Z,3.22
2023-10-12T22:59:33.939Z,3.85
2023-10-12T23:02:01.616Z,4.15
2023-10-12T23:04:29.053Z,3.35
2023-10-12T23:06:56.176Z,4.10
2023-10-12T23:09:24.508Z,3.80
2023-10-12T23:11:56.064Z,4.45
2023-10-12T23:14:28.341Z,3.78
2023-10-12T23:16:59.093Z,4.00
2023-10-12T23:19:44.504Z,3.20
2023-10-12T23:22:27.771Z,3.95
2023-10-12T23:24:58.686Z,3.47
2023-10-12T23:27:33.178Z,3.83
2023-10-12T23:30:11.853Z,3.72
2023-10-12T23:32:39.378Z,4.43
2023-10-12T23:35:12.150Z,4.28
2023-10-12T23:37:58.974Z,4.03
2023-10-12T23:40:29.056Z,5.05
2023-10-12T23:42:58.556Z,3.85
2023-10-12T23:45:36.755Z,3.78
2023-10-12T23:48:10.907Z,3.92
2023-10-12T23:50:44.439Z,4.90
2023-10-12T23:53:19.016Z,4.50
2023-10-12T23:55:47.347Z,4.85
2023-10-12T23:58:15.691Z,4.15
